Time;durP1;ratioP1;P1;durP2;ratioP2;P2;SDS_P1;SDS_P2;PMS_P1;PMS_P2;Temp;Humidity;BMP_temperature;BMP_pressure;BME280_temperature;BME280_humidity;BME280_pressure;Samples;Min_cycle;Max_cycle;Signal;HPM_P1;HPM_P2
2022/07/17 00:00:10;;;;;;;;;;;23.90;57.80;24.00;99945.00;;;;335518;28;95645;-88
2022/07/17 00:00:22;;;;;;;;;;;23.90;58.00;23.80;99950.00;;;;338943;28;91172;-88
2022/07/17 00:00:34;;;;;;;;;;;23.90;57.90;23.90;99947.00;;;;338203;28;94778;-87
2022/07/17 00:00:45;;;;;;;;;;;23.80;57.80;23.80;99940.00;;;;341354;28;92160;-88
2022/07/17 00:00:58;;;;;;;;;;;23.90;57.70;23.90;99942.00;;;;341165;28;95821;-88
2022/07/17 00:01:10;;;;;;;;;;;23.90;57.60;23.90;99937.00;;;;339270;28;93061;-87
2022/07/17 00:01:22;;;;;;;;;;;23.90;57.70;23.90;99940.00;;;;336955;28;96809;-87
2022/07/17 00:01:33;;;;;;;;;;;23.90;57.60;23.90;99945.00;;;;339361;28;91691;-88
2022/07/17 00:01:45;;;;;;;;;;;23.90;57.70;23.90;99949.00;;;;340480;28;94785;-88
2022/07/17 00:01:57;;;;;;;;;;;23.90;57.70;23.90;99941.00;;;;338662;28;92077;-88
2022/07/17 00:02:09;;;;;;;;;;;23.90;57.70;23.90;99942.00;;;;336250;28;94948;-88
2022/07/17 00:02:21;;;;;;;;;;;23.90;57.90;23.80;99945.00;;;;334730;28;94551;-88
2022/07/17 00:02:33;;;;;;;;;;;23.90;58.10;23.70;99942.00;;;;337509;28;94858;-88
2022/07/17 00:02:47;;;;;;;;;;;23.80;58.10;23.80;99940.00;;;;337872;28;92235;-88
2022/07/17 00:02:59;;;;;;;;;;;23.80;58.00;23.80;99946.00;;;;341755;28;94898;-88
2022/07/17 00:03:12;;;;;;;;;;;23.80;57.80;23.90;99946.00;;;;338652;28;93015;-88
2022/07/17 00:03:24;;;;;;;;;;;23.80;57.80;23.80;99943.00;;;;339764;28;93357;-88
2022/07/17 00:03:36;;;;;;;;;;;23.80;57.90;23.80;99943.00;;;;338777;28;92070;-88
2022/07/17 00:03:47;;;;;;;;;;;23.80;58.10;23.80;99936.00;;;;340024;28;94862;-88
2022/07/17 00:03:59;;;;;;;;;;;23.80;58.00;23.80;99940.00;;;;336954;28;92794;-87
2022/07/17 00:04:11;;;;;;;;;;;23.80;57.90;23.80;99941.00;;;;340143;28;95706;-88
2022/07/17 00:04:26;;;;;;;;;;;23.80;57.90;23.80;99944.00;;;;340110;28;91946;-88
2022/07/17 00:04:38;;;;;;;;;;;23.80;58.00;23.70;99945.00;;;;340059;28;94959;-88
2022/07/17 00:04:49;;;;;;;;;;;23.80;57.80;23.80;99942.00;;;;340184;28;91150;-88
2022/07/17 00:05:01;;;;;;;;;;;23.80;57.90;23.80;99947.00;;;;341663;28;94918;-88
2022/07/17 00:05:14;;;;;;;;;;;23.80;58.00;23.80;99943.00;;;;340642;28;92218;-88
2022/07/17 00:05:26;;;;;;;;;;;23.80;58.10;23.80;99943.00;;;;338595;28;94659;-88
2022/07/17 00:05:38;;;;;;;;;;;23.80;58.10;23.90;99936.00;;;;339797;28;91314;-88
2022/07/17 00:05:49;;;;;;;;;;;23.80;57.90;23.90;99939.00;;;;340432;28;95939;-88
2022/07/17 00:06:01;;;;;;;;;;;23.80;57.90;23.90;99942.00;;;;341574;28;91077;-88
2022/07/17 00:06:14;;;;;;;;;;;23.80;58.00;23.90;99943.00;;;;338653;28;95509;-87
2022/07/17 00:06:26;;;;;;;;;;;23.80;58.00;23.80;99936.00;;;;338150;28;92065;-88
2022/07/17 00:06:38;;;;;;;;;;;23.80;58.00;23.80;99942.00;;;;340364;28;96227;-88
2022/07/17 00:06:50;;;;;;;;;;;23.80;58.10;23.80;99936.00;;;;338848;28;91979;-88
2022/07/17 00:07:02;;;;;;;;;;;23.80;58.10;23.80;99942.00;;;;337203;28;95832;-88
2022/07/17 00:07:14;;;;;;;;;;;23.80;58.50;23.80;99942.00;;;;337271;28;93102;-88
2022/07/17 00:07:25;;;;;;;;;;;23.80;58.00;23.80;99945.00;;;;338517;28;95788;-88
2022/07/17 00:07:37;;;;;;;;;;;23.80;57.90;23.70;99945.00;;;;338448;28;93997;-88
2022/07/17 00:07:49;;;;;;;;;;;23.80;58.20;23.80;99939.00;;;;338875;28;95130;-88
2022/07/17 00:08:01;;;;;;;;;;;23.80;58.20;23.80;99944.00;;;;337109;28;92039;-88
2022/07/17 00:08:13;;;;;;;;;;;23.80;58.20;23.80;99940.00;;;;338910;28;95535;-88
2022/07/17 00:08:30;;;;;;;;;;;23.80;58.10;23.80;99939.00;;;;338335;28;92191;-88
2022/07/17 00:08:43;;;;;;;;;;;23.80;58.20;23.90;99941.00;;;;336106;28;96488;-88
2022/07/17 00:08:55;;;;;;;;;;;23.80;58.00;23.90;99945.00;;;;336277;28;92131;-88
2022/07/17 00:09:07;;;;;;;;;;;23.80;58.10;23.90;99951.00;;;;339115;28;95977;-88
2022/07/17 00:09:19;;;;;;;;;;;23.80;58.10;23.90;99945.00;;;;339204;28;93178;-88
2022/07/17 00:09:30;;;;;;;;;;;23.80;58.10;23.90;99947.00;;;;337460;28;96895;-87
2022/07/17 00:09:43;;;;;;;;;;;23.80;58.10;23.80;99943.00;;;;338743;28;91157;-88
2022/07/17 00:09:54;;;;;;;;;;;23.80;58.10;23.90;99939.00;;;;339101;28;96168;-88
2022/07/17 00:10:07;;;;;;;;;;;23.80;58.00;23.90;99945.00;;;;338805;28;91350;-88
2022/07/17 00:10:19;;;;;;;;;;;23.80;58.00;23.90;99943.00;;;;343163;28;95859;-88
2022/07/17 00:10:31;;;;;;;;;;;23.80;58.00;23.90;99940.00;;;;340865;28;92133;-88
2022/07/17 00:10:43;;;;;;;;;;;23.80;57.90;23.90;99949.00;;;;337803;28;96088;-88
2022/07/17 00:10:54;;;;;;;;;;;23.80;57.90;23.90;99939.00;;;;339955;28;92742;-88
2022/07/17 00:11:06;;;;;;;;;;;23.80;57.90;23.80;99945.00;;;;339144;28;94563;-88
2022/07/17 00:11:18;;;;;;;;;;;23.80;58.00;23.80;99943.00;;;;337493;28;92216;-88
2022/07/17 00:11:30;;;;;;;;;;;23.80;58.00;23.80;99945.00;;;;340537;28;95759;-87
2022/07/17 00:11:43;;;;;;;;;;;23.80;57.80;23.90;99948.00;;;;338885;28;91256;-88
2022/07/17 00:11:55;;;;;;;;;;;23.80;57.80;23.90;99943.00;;;;336525;28;92383;-88
2022/07/17 00:12:06;;;;;;;;;;;23.80;58.00;23.80;99937.00;;;;336198;28;91955;-88
2022/07/17 00:12:18;;;;;;;;;;;23.80;57.90;23.80;99947.00;;;;336400;28;95726;-87
2022/07/17 00:12:30;;;;;;;;;;;23.80;58.00;23.90;99945.00;;;;336075;28;91314;-88
2022/07/17 00:12:43;;;;;;;;;;;23.80;58.10;23.90;99943.00;;;;336999;28;94778;-88
2022/07/17 00:12:55;;;;;;;;;;;23.80;58.10;23.90;99937.00;;;;341310;28;92563;-88
2022/07/17 00:13:07;;;;;;;;;;;23.80;58.00;23.90;99947.00;;;;338646;28;92632;-87
2022/07/17 00:13:19;;;;;;;;;;;23.80;57.90;23.90;99938.00;;;;338578;28;92216;-88
2022/07/17 00:13:31;;;;;;;;;;;23.80;57.80;23.90;99943.00;;;;339718;28;95817;-88
2022/07/17 00:13:44;;;;;;;;;;;23.80;57.70;23.90;99938.00;;;;340158;28;92091;-88
2022/07/17 00:13:56;;;;;;;;;;;23.90;57.80;23.90;99944.00;;;;338549;28;95949;-88
2022/07/17 00:14:08;;;;;;;;;;;23.90;57.80;23.90;99947.00;;;;338712;28;92048;-88
2022/07/17 00:14:19;;;;;;;;;;;23.90;57.80;23.90;99949.00;;;;338949;28;95125;-88
2022/07/17 00:14:31;;;;;;;;;;;23.80;57.70;23.90;99940.00;;;;339109;28;91417;-88
2022/07/17 00:14:44;;;;;;;;;;;23.90;57.90;23.90;99939.00;;;;340511;28;94539;-88
2022/07/17 00:14:59;;;;;;;;;;;23.90;58.10;23.90;99945.00;;;;340200;28;91974;-89
2022/07/17 00:15:11;;;;;;;;;;;23.90;58.10;23.80;99944.00;;;;340369;28;95994;-88
2022/07/17 00:15:22;;;;;;;;;;;23.80;57.90;23.80;99948.00;;;;338436;28;93174;-88
2022/07/17 00:15:34;;;;;;;;;;;23.80;57.90;23.80;99939.00;;;;340280;28;95626;-88
2022/07/17 00:15:46;;;;;;;;;;;23.80;57.80;23.80;99939.00;;;;335945;28;92203;-88
2022/07/17 00:15:58;;;;;;;;;;;23.80;57.80;23.80;99942.00;;;;336607;28;95724;-88
2022/07/17 00:16:10;;;;;;;;;;;23.80;57.80;23.90;99936.00;;;;337255;28;92043;-87
2022/07/17 00:16:23;;;;;;;;;;;23.80;57.90;23.80;99943.00;;;;337522;28;95620;-88
2022/07/17 00:16:35;;;;;;;;;;;23.80;58.40;23.80;99943.00;;;;338748;28;91851;-88
2022/07/17 00:16:46;;;;;;;;;;;23.80;57.80;23.90;99943.00;;;;339165;28;96376;-88
2022/07/17 00:16:58;;;;;;;;;;;23.80;57.90;23.80;99943.00;;;;338827;28;92064;-88
2022/07/17 00:17:10;;;;;;;;;;;23.80;58.00;23.90;99949.00;;;;339138;28;95818;-88
2022/07/17 00:17:22;;;;;;;;;;;23.80;58.00;23.90;99945.00;;;;340702;28;93113;-88
2022/07/17 00:17:34;;;;;;;;;;;23.80;58.10;23.90;99943.00;;;;339789;28;96970;-88
2022/07/17 00:17:46;;;;;;;;;;;23.80;58.00;23.80;99942.00;;;;338914;28;91244;-87
2022/07/17 00:17:58;;;;;;;;;;;23.80;58.00;23.80;99945.00;;;;337716;28;95956;-87
2022/07/17 00:18:10;;;;;;;;;;;23.80;58.00;23.70;99941.00;;;;338158;28;92363;-87
2022/07/17 00:18:22;;;;;;;;;;;23.80;58.00;23.70;99938.00;;;;336013;28;95691;-87
2022/07/17 00:18:34;;;;;;;;;;;23.80;57.90;23.80;99944.00;;;;339762;28;91284;-88
2022/07/17 00:18:46;;;;;;;;;;;23.80;58.10;23.80;99940.00;;;;339096;28;95844;-87
2022/07/17 00:18:58;;;;;;;;;;;23.80;58.00;23.80;99941.00;;;;338091;28;92326;-87
2022/07/17 00:19:10;;;;;;;;;;;23.80;58.00;23.80;99941.00;;;;338478;28;96234;-88
2022/07/17 00:19:21;;;;;;;;;;;23.80;58.00;23.70;99944.00;;;;339659;28;92275;-88
2022/07/17 00:19:33;;;;;;;;;;;23.80;57.90;23.70;99943.00;;;;338570;28;96741;-87
2022/07/17 00:19:45;;;;;;;;;;;23.80;57.90;23.80;99949.00;;;;336903;28;92076;-88
2022/07/17 00:19:57;;;;;;;;;;;23.80;58.10;23.80;99933.00;;;;336777;28;96503;-88
2022/07/17 00:20:10;;;;;;;;;;;23.80;58.40;23.70;99943.00;;;;338840;28;92014;-88
2022/07/17 00:20:24;;;;;;;;;;;23.80;58.10;23.80;99939.00;;;;338018;28;96193;-88
2022/07/17 00:20:36;;;;;;;;;;;23.80;58.00;23.80;99943.00;;;;335965;28;92072;-88
2022/07/17 00:20:48;;;;;;;;;;;23.80;58.00;23.80;99936.00;;;;337698;28;95804;-88
2022/07/17 00:21:00;;;;;;;;;;;23.70;58.00;23.80;99938.00;;;;340208;28;91136;-88
2022/07/17 00:21:12;;;;;;;;;;;23.70;58.10;23.80;99939.00;;;;340471;28;93298;-87
2022/07/17 00:21:27;;;;;;;;;;;23.70;58.00;23.80;99943.00;;;;336449;28;93190;-87
2022/07/17 00:21:39;;;;;;;;;;;23.80;58.10;23.80;99942.00;;;;337268;28;96926;-88
2022/07/17 00:21:50;;;;;;;;;;;23.80;58.00;23.80;99943.00;;;;338546;28;92096;-88
2022/07/17 00:22:02;;;;;;;;;;;23.70;58.00;23.70;99945.00;;;;338064;28;95885;-88
2022/07/17 00:22:14;;;;;;;;;;;23.80;58.00;23.70;99940.00;;;;337328;28;92097;-88
2022/07/17 00:22:27;;;;;;;;;;;23.70;58.00;23.80;99942.00;;;;339447;28;94955;-87
2022/07/17 00:22:39;;;;;;;;;;;23.70;58.00;23.80;99939.00;;;;341079;28;92047;-88
2022/07/17 00:22:52;;;;;;;;;;;23.70;58.10;23.80;99947.00;;;;338883;28;95254;-87
2022/07/17 00:23:04;;;;;;;;;;;23.70;58.40;23.80;99943.00;;;;336151;28;91271;-88
2022/07/17 00:23:16;;;;;;;;;;;23.70;58.20;23.80;99945.00;;;;338979;28;94799;-88
2022/07/17 00:23:29;;;;;;;;;;;23.80;58.10;23.90;99940.00;;;;337418;28;93152;-87
2022/07/17 00:23:40;;;;;;;;;;;23.70;58.00;23.90;99943.00;;;;340477;28;93358;-88
2022/07/17 00:23:52;;;;;;;;;;;23.80;58.10;23.80;99940.00;;;;340128;28;92096;-88
2022/07/17 00:24:06;;;;;;;;;;;23.80;58.10;23.80;99938.00;;;;338067;28;95836;-87
2022/07/17 00:24:19;;;;;;;;;;;23.80;58.30;23.80;99936.00;;;;338838;28;91181;-87
2022/07/17 00:24:32;;;;;;;;;;;23.80;58.30;23.70;99949.00;;;;336440;28;94818;-87
2022/07/17 00:24:43;;;;;;;;;;;23.80;58.10;23.80;99945.00;;;;338849;28;93109;-88
2022/07/17 00:24:55;;;;;;;;;;;23.80;58.10;23.70;99943.00;;;;339249;28;94833;-88
2022/07/17 00:25:07;;;;;;;;;;;23.80;58.30;23.80;99943.00;;;;336793;28;92139;-87
2022/07/17 00:25:19;;;;;;;;;;;23.80;58.30;23.80;99943.00;;;;337761;28;94787;-87
2022/07/17 00:25:32;;;;;;;;;;;23.80;58.20;23.80;99954.00;;;;338197;28;93346;-87
2022/07/17 00:25:44;;;;;;;;;;;23.80;58.20;23.70;99939.00;;;;338480;28;96439;-87
2022/07/17 00:25:56;;;;;;;;;;;23.80;58.20;23.70;99939.00;;;;339726;28;91415;-87
2022/07/17 00:26:08;;;;;;;;;;;23.80;58.30;23.80;99944.00;;;;339168;28;95873;-87
2022/07/17 00:26:20;;;;;;;;;;;23.80;58.10;23.80;99948.00;;;;340466;28;92140;-87
2022/07/17 00:26:32;;;;;;;;;;;23.70;58.20;23.70;99936.00;;;;340174;28;96486;-88
2022/07/17 00:26:44;;;;;;;;;;;23.80;58.30;23.70;99942.00;;;;338544;28;92174;-88
2022/07/17 00:26:56;;;;;;;;;;;23.70;58.00;23.60;99937.00;;;;338310;28;95203;-86
2022/07/17 00:27:07;;;;;;;;;;;23.70;57.90;23.70;99943.00;;;;341063;28;92144;-87
2022/07/17 00:27:19;;;;;;;;;;;23.70;57.90;23.70;99945.00;;;;340057;28;92432;-87
2022/07/17 00:27:31;;;;;;;;;;;23.70;57.90;23.70;99945.00;;;;338781;28;92986;-87
2022/07/17 00:27:43;;;;;;;;;;;23.70;57.90;23.70;99942.00;;;;336423;28;96500;-88
2022/07/17 00:27:55;;;;;;;;;;;23.70;57.90;23.70;99947.00;;;;337280;28;92128;-87
2022/07/17 00:28:07;;;;;;;;;;;23.70;57.90;23.70;99940.00;;;;338920;28;95806;-88
2022/07/17 00:28:18;;;;;;;;;;;23.70;58.30;23.70;99945.00;;;;339686;28;94155;-87
2022/07/17 00:28:30;;;;;;;;;;;23.70;58.00;23.70;99934.00;;;;340221;28;95942;-87
2022/07/17 00:28:42;;;;;;;;;;;23.70;58.00;23.70;99941.00;;;;340993;28;92167;-88
2022/07/17 00:28:54;;;;;;;;;;;23.70;58.00;23.70;99946.00;;;;338223;28;95821;-87
2022/07/17 00:29:06;;;;;;;;;;;23.70;58.00;23.60;99940.00;;;;338524;28;92227;-87
2022/07/17 00:29:18;;;;;;;;;;;23.70;58.00;23.70;99941.00;;;;338567;28;95724;-86
2022/07/17 00:29:30;;;;;;;;;;;23.70;58.10;23.60;99939.00;;;;338588;28;93014;-88
2022/07/17 00:29:42;;;;;;;;;;;23.70;58.20;23.60;99935.00;;;;341810;28;95827;-87
2022/07/17 00:29:55;;;;;;;;;;;23.70;58.00;23.70;99934.00;;;;339906;28;92244;-87
2022/07/17 00:30:07;;;;;;;;;;;23.70;58.00;23.60;99936.00;;;;340272;28;95605;-87
2022/07/17 00:30:19;;;;;;;;;;;23.70;58.10;23.50;99935.00;;;;336721;28;91909;-87
2022/07/17 00:30:31;;;;;;;;;;;23.70;58.10;23.60;99939.00;;;;336503;28;92350;-87
2022/07/17 00:30:43;;;;;;;;;;;23.60;58.00;23.70;99936.00;;;;336674;28;92104;-87
2022/07/17 00:30:55;;;;;;;;;;;23.70;58.30;23.70;99948.00;;;;338050;28;92333;-87
2022/07/17 00:31:07;;;;;;;;;;;23.60;58.30;23.70;99935.00;;;;337553;28;91987;-86
2022/07/17 00:31:19;;;;;;;;;;;23.70;58.40;23.70;99938.00;;;;337918;28;95808;-88
2022/07/17 00:31:31;;;;;;;;;;;23.70;58.80;23.60;99950.00;;;;336145;28;92950;-88
2022/07/17 00:31:43;;;;;;;;;;;23.70;58.60;23.60;99935.00;;;;336154;28;95841;-86
2022/07/17 00:31:55;;;;;;;;;;;23.60;58.40;23.60;99927.00;;;;336360;28;91286;-87
2022/07/17 00:32:07;;;;;;;;;;;23.60;58.30;23.60;99935.00;;;;336725;28;95820;-87
2022/07/17 00:32:19;;;;;;;;;;;23.70;58.30;23.60;99942.00;;;;337870;28;92440;-87
2022/07/17 00:32:31;;;;;;;;;;;23.70;58.40;23.60;99942.00;;;;337532;28;95929;-85
2022/07/17 00:32:44;;;;;;;;;;;23.60;58.20;23.60;99937.00;;;;338126;28;92273;-87
2022/07/17 00:32:56;;;;;;;;;;;23.60;58.10;23.60;99943.00;;;;340395;28;95951;-87
2022/07/17 00:33:08;;;;;;;;;;;23.60;58.10;23.60;99938.00;;;;337317;28;91226;-87
2022/07/17 00:33:20;;;;;;;;;;;23.60;58.10;23.60;99947.00;;;;339269;28;94937;-86
2022/07/17 00:33:32;;;;;;;;;;;23.60;58.10;23.60;99939.00;;;;340877;28;93088;-88
2022/07/17 00:33:44;;;;;;;;;;;23.60;58.50;23.60;99944.00;;;;337693;28;96797;-87
2022/07/17 00:33:55;;;;;;;;;;;23.60;58.50;23.60;99938.00;;;;338198;28;92235;-87
2022/07/17 00:34:07;;;;;;;;;;;23.60;58.30;23.50;99940.00;;;;338984;28;99176;-87
2022/07/17 00:34:19;;;;;;;;;;;23.60;58.10;23.60;99943.00;;;;338871;28;92711;-88
2022/07/17 00:34:32;;;;;;;;;;;23.60;58.20;23.60;99941.00;;;;338516;28;94704;-87
2022/07/17 00:34:44;;;;;;;;;;;23.60;58.10;23.50;99936.00;;;;338074;28;91382;-87
2022/07/17 00:34:56;;;;;;;;;;;23.60;58.20;23.50;99943.00;;;;338939;28;96511;-87
2022/07/17 00:35:08;;;;;;;;;;;23.60;58.20;23.60;99943.00;;;;338728;28;91999;-87
2022/07/17 00:35:20;;;;;;;;;;;23.60;58.20;23.60;99938.00;;;;340292;28;94814;-88
2022/07/17 00:35:31;;;;;;;;;;;23.60;58.20;23.60;99938.00;;;;338353;28;92878;-87
2022/07/17 00:35:43;;;;;;;;;;;23.60;58.10;23.50;99944.00;;;;339099;28;97488;-88
2022/07/17 00:35:55;;;;;;;;;;;23.60;58.30;23.60;99941.00;;;;339997;28;92198;-87
2022/07/17 00:36:07;;;;;;;;;;;23.60;58.30;23.60;99938.00;;;;338725;28;94987;-87
2022/07/17 00:36:19;;;;;;;;;;;23.60;58.20;23.60;99936.00;;;;337481;28;92034;-86
2022/07/17 00:36:30;;;;;;;;;;;23.60;58.30;23.60;99939.00;;;;340210;28;95089;-87
2022/07/17 00:36:42;;;;;;;;;;;23.60;58.40;23.50;99946.00;;;;340053;28;92149;-87
2022/07/17 00:36:54;;;;;;;;;;;23.60;58.30;23.60;99944.00;;;;336117;28;94880;-86
2022/07/17 00:37:06;;;;;;;;;;;23.60;58.30;23.50;99937.00;;;;337342;28;92175;-87
2022/07/17 00:37:18;;;;;;;;;;;23.60;58.30;23.60;99938.00;;;;338179;28;94860;-88
2022/07/17 00:37:30;;;;;;;;;;;23.60;58.30;23.60;99934.00;;;;338705;28;93060;-88
2022/07/17 00:37:44;;;;;;;;;;;23.60;58.70;23.60;99936.00;;;;340234;28;97331;-88
2022/07/17 00:37:56;;;;;;;;;;;23.60;58.40;23.60;99941.00;;;;338656;28;92573;-88
2022/07/17 00:38:10;;;;;;;;;;;23.60;58.30;23.60;99938.00;;;;340412;28;95979;-87
2022/07/17 00:38:21;;;;;;;;;;;23.60;58.40;23.40;99947.00;;;;336759;28;92150;-87
2022/07/17 00:38:33;;;;;;;;;;;23.60;58.40;23.40;99943.00;;;;337605;28;94813;-87
2022/07/17 00:38:45;;;;;;;;;;;23.50;58.30;23.50;99940.00;;;;335731;28;91433;-87
2022/07/17 00:38:57;;;;;;;;;;;23.50;58.30;23.50;99943.00;;;;338373;28;94642;-87
2022/07/17 00:39:09;;;;;;;;;;;23.50;58.40;23.60;99932.00;;;;338910;28;91854;-87
2022/07/17 00:39:20;;;;;;;;;;;23.50;58.30;23.60;99943.00;;;;339373;28;95953;-87
2022/07/17 00:39:33;;;;;;;;;;;23.50;58.30;23.60;99942.00;;;;341526;28;93129;-87
2022/07/17 00:39:44;;;;;;;;;;;23.50;58.40;23.40;99947.00;;;;339261;28;96804;-88
2022/07/17 00:39:56;;;;;;;;;;;23.50;58.70;23.40;99948.00;;;;339378;28;92286;-87
2022/07/17 00:40:09;;;;;;;;;;;23.50;58.80;23.50;99938.00;;;;339209;28;95635;-87
2022/07/17 00:40:22;;;;;;;;;;;23.50;58.50;23.50;99940.00;;;;339629;28;92086;-86
2022/07/17 00:40:34;;;;;;;;;;;23.50;58.40;23.50;99939.00;;;;335352;28;95839;-87
2022/07/17 00:40:46;;;;;;;;;;;23.50;58.60;23.50;99943.00;;;;337567;28;91965;-87
2022/07/17 00:40:58;;;;;;;;;;;23.50;58.60;23.50;99945.00;;;;340887;28;96251;-88
2022/07/17 00:41:13;;;;;;;;;;;23.50;58.60;23.50;99940.00;;;;336913;28;92073;-86
2022/07/17 00:41:25;;;;;;;;;;;23.50;58.50;23.60;99944.00;;;;338674;28;95726;-87
2022/07/17 00:41:38;;;;;;;;;;;23.50;58.50;23.60;99945.00;;;;338734;28;92135;-87
2022/07/17 00:41:50;;;;;;;;;;;23.50;58.40;23.60;99942.00;;;;338923;28;93397;-87
2022/07/17 00:42:03;;;;;;;;;;;23.50;58.50;23.50;99946.00;;;;340050;28;92081;-87
2022/07/17 00:42:15;;;;;;;;;;;23.50;58.50;23.50;99939.00;;;;340438;28;94992;-88
2022/07/17 00:42:27;;;;;;;;;;;23.50;58.50;23.40;99943.00;;;;337112;28;91980;-86
2022/07/17 00:42:40;;;;;;;;;;;23.50;58.30;23.40;99938.00;;;;337206;28;94764;-87
2022/07/17 00:42:52;;;;;;;;;;;23.50;58.30;23.40;99946.00;;;;338496;28;91853;-87
2022/07/17 00:43:04;;;;;;;;;;;23.50;58.40;23.50;99952.00;;;;339409;28;96059;-88
2022/07/17 00:43:16;;;;;;;;;;;23.50;58.90;23.50;99942.00;;;;337254;28;92167;-87
2022/07/17 00:43:29;;;;;;;;;;;23.50;58.60;23.60;99950.00;;;;339653;28;95662;-88
2022/07/17 00:43:41;;;;;;;;;;;23.50;58.50;23.50;99950.00;;;;339559;28;93027;-90
2022/07/17 00:43:53;;;;;;;;;;;23.50;58.40;23.50;99947.00;;;;338467;28;96415;-83
2022/07/17 00:44:09;;;;;;;;;;;23.50;58.30;23.40;99949.00;;;;337504;28;91803;-83
2022/07/17 00:44:25;;;;;;;;;;;23.50;58.50;23.40;99953.00;;;;339045;28;93902;-83
2022/07/17 00:44:36;;;;;;;;;;;23.50;58.80;23.50;99942.00;;;;335823;28;92182;-83
2022/07/17 00:44:48;;;;;;;;;;;23.50;58.60;23.30;99949.00;;;;336393;28;93929;-83
2022/07/17 00:45:00;;;;;;;;;;;23.50;58.70;23.30;99952.00;;;;336223;28;91143;-83
2022/07/17 00:45:12;;;;;;;;;;;23.40;58.70;23.40;99945.00;;;;338837;28;92963;-83
2022/07/17 00:45:24;;;;;;;;;;;23.40;58.60;23.40;99949.00;;;;338703;28;92145;-83
2022/07/17 00:45:36;;;;;;;;;;;23.40;58.80;23.40;99951.00;;;;336407;28;94528;-85
2022/07/17 00:45:58;;;;;;;;;;;23.40;58.70;23.50;99955.00;;;;337670;28;93055;-85
2022/07/17 00:46:10;;;;;;;;;;;23.40;58.60;23.50;99948.00;;;;337934;28;95866;-82
2022/07/17 00:46:22;;;;;;;;;;;23.50;58.70;23.40;99943.00;;;;338180;28;92292;-82
2022/07/17 00:46:34;;;;;;;;;;;23.40;58.50;23.40;99951.00;;;;338988;28;93525;-82
2022/07/17 00:46:46;;;;;;;;;;;23.40;58.60;23.50;99948.00;;;;337442;28;92201;-82
2022/07/17 00:46:57;;;;;;;;;;;23.40;58.60;23.50;99949.00;;;;338167;28;93863;-82
2022/07/17 00:47:18;;;;;;;;;;;23.40;58.50;23.50;99949.00;;;;337934;28;92358;-82
2022/07/17 00:47:29;;;;;;;;;;;23.40;58.50;23.50;99952.00;;;;337631;28;93458;-82
2022/07/17 00:48:01;;;;;;;;;;;23.40;58.50;23.40;99956.00;;;;338717;28;91118;-82
2022/07/17 00:48:13;;;;;;;;;;;23.40;58.60;23.30;99953.00;;;;337418;28;93726;-83
2022/07/17 00:48:25;;;;;;;;;;;23.50;58.60;23.40;99950.00;;;;338071;28;92959;-82
2022/07/17 00:48:36;;;;;;;;;;;23.40;58.70;23.40;99948.00;;;;340051;28;97661;-82
2022/07/17 00:48:48;;;;;;;;;;;23.40;58.70;23.40;99954.00;;;;341282;28;92060;-82
2022/07/17 00:49:00;;;;;;;;;;;23.40;58.60;23.40;99955.00;;;;339088;28;96566;-82
2022/07/17 00:49:12;;;;;;;;;;;23.40;58.50;23.40;99951.00;;;;338241;28;92793;-82
2022/07/17 00:49:23;;;;;;;;;;;23.40;58.50;23.40;99952.00;;;;338742;28;93758;-82
2022/07/17 00:49:35;;;;;;;;;;;23.40;58.50;23.40;99958.00;;;;336247;28;92866;-82
2022/07/17 00:49:47;;;;;;;;;;;23.40;58.90;23.40;99954.00;;;;338645;28;93633;-82
2022/07/17 00:49:59;;;;;;;;;;;23.40;58.80;23.40;99952.00;;;;338896;28;92036;-82
2022/07/17 00:50:11;;;;;;;;;;;23.40;58.90;23.30;99957.00;;;;338730;28;96588;-82
2022/07/17 00:50:25;;;;;;;;;;;23.40;58.90;23.40;99948.00;;;;339395;28;93723;-82
2022/07/17 00:50:38;;;;;;;;;;;23.40;58.70;23.40;99953.00;;;;338403;28;94809;-82
2022/07/17 00:50:50;;;;;;;;;;;23.40;58.90;23.30;99955.00;;;;338734;28;92029;-82
2022/07/17 00:51:02;;;;;;;;;;;23.40;58.60;23.20;99943.00;;;;339031;28;93847;-82
2022/07/17 00:51:14;;;;;;;;;;;23.40;58.40;23.30;99946.00;;;;338737;28;91256;-82
2022/07/17 00:51:26;;;;;;;;;;;23.30;58.40;23.30;99948.00;;;;338317;28;93702;-82
2022/07/17 00:51:38;;;;;;;;;;;23.40;58.60;23.20;99943.00;;;;336897;28;91925;-82
2022/07/17 00:51:49;;;;;;;;;;;23.30;58.50;23.20;99945.00;;;;337158;28;94047;-82
2022/07/17 00:52:03;;;;;;;;;;;23.30;58.60;23.30;99946.00;;;;336491;28;92013;-82
2022/07/17 00:52:16;;;;;;;;;;;23.30;58.60;23.30;99945.00;;;;336454;28;95995;-84
2022/07/17 00:52:29;;;;;;;;;;;23.30;58.70;23.30;99946.00;;;;336991;28;93032;-89
2022/07/17 00:52:40;;;;;;;;;;;23.30;58.70;23.30;99946.00;;;;338540;28;97553;-87
2022/07/17 00:52:53;;;;;;;;;;;23.30;58.70;23.30;99941.00;;;;341457;28;92061;-87
2022/07/17 00:53:06;;;;;;;;;;;23.30;58.60;23.40;99947.00;;;;336318;28;94556;-87
2022/07/17 00:53:18;;;;;;;;;;;23.30;58.90;23.30;99941.00;;;;337638;28;92250;-87
2022/07/17 00:53:32;;;;;;;;;;;23.30;59.10;23.40;99946.00;;;;336721;28;96650;-86
2022/07/17 00:53:44;;;;;;;;;;;23.30;58.90;23.40;99950.00;;;;338607;28;92190;-87
2022/07/17 00:53:55;;;;;;;;;;;23.40;58.80;23.40;99938.00;;;;336291;28;94827;-87
2022/07/17 00:54:07;;;;;;;;;;;23.30;58.70;23.30;99943.00;;;;338798;28;92031;-88
2022/07/17 00:54:20;;;;;;;;;;;23.30;58.70;23.30;99946.00;;;;338643;28;93586;-87
2022/07/17 00:54:37;;;;;;;;;;;23.30;58.80;23.30;99947.00;;;;338135;28;93182;-87
2022/07/17 00:54:49;;;;;;;;;;;23.30;58.80;23.30;99950.00;;;;337695;28;97205;-87
2022/07/17 00:55:21;;;;;;;;;;;23.30;58.70;23.30;99957.00;;;;339823;28;92173;-87
2022/07/17 00:55:52;;;;;;;;;;;23.30;58.90;23.30;99952.00;;;;338398;28;92809;-87
2022/07/17 00:56:05;;;;;;;;;;;23.30;58.90;23.30;99950.00;;;;338448;28;92262;-88
2022/07/17 00:56:17;;;;;;;;;;;23.30;59.00;23.40;99941.00;;;;336289;28;95878;-87
2022/07/17 00:56:32;;;;;;;;;;;23.30;58.70;23.40;99947.00;;;;337466;28;92017;-87
2022/07/17 00:56:45;;;;;;;;;;;23.30;58.70;23.20;99942.00;;;;337449;28;95668;-87
2022/07/17 00:56:56;;;;;;;;;;;23.30;58.70;23.20;99939.00;;;;337153;28;92163;-87
2022/07/17 00:57:10;;;;;;;;;;;23.30;58.70;23.20;99947.00;;;;338957;28;93016;-87
2022/07/17 00:57:22;;;;;;;;;;;23.20;58.70;23.20;99945.00;;;;339917;28;92342;-88
2022/07/17 00:57:33;;;;;;;;;;;23.30;58.70;23.20;99939.00;;;;339478;28;95839;-87
2022/07/17 00:57:46;;;;;;;;;;;23.20;58.60;23.20;99942.00;;;;338810;28;92040;-87
2022/07/17 00:58:01;;;;;;;;;;;23.20;58.70;23.30;99950.00;;;;340733;28;96419;-87
2022/07/17 00:58:18;;;;;;;;;;;23.30;58.80;23.20;99950.00;;;;338237;28;92134;-87
2022/07/17 00:58:32;;;;;;;;;;;23.20;58.80;23.20;99942.00;;;;334942;28;94841;-87
2022/07/17 00:58:45;;;;;;;;;;;23.20;58.70;23.20;99943.00;;;;337000;28;91969;-87
2022/07/17 00:58:57;;;;;;;;;;;23.20;58.80;23.10;99952.00;;;;334574;28;93323;-86
2022/07/17 00:59:09;;;;;;;;;;;23.20;58.80;23.10;99952.00;;;;337783;28;91412;-88
2022/07/17 00:59:22;;;;;;;;;;;23.20;58.80;23.20;99950.00;;;;337508;28;96035;-87
2022/07/17 00:59:34;;;;;;;;;;;23.20;58.80;23.20;99952.00;;;;337049;28;92892;-87
2022/07/17 00:59:46;;;;;;;;;;;23.20;58.90;23.20;99954.00;;;;339633;28;95556;-87
2022/07/17 00:59:58;;;;;;;;;;;23.20;59.20;23.20;99949.00;;;;339070;28;92129;-87
2022/07/17 01:00:10;;;;;;;;;;;23.20;59.10;23.20;99946.00;;;;337716;28;94051;-88
2022/07/17 01:00:23;;;;;;;;;;;23.20;59.10;23.20;99952.00;;;;337150;28;92252;-86
2022/07/17 01:00:35;;;;;;;;;;;23.20;58.90;23.20;99949.00;;;;336898;28;95121;-86
2022/07/17 01:00:48;;;;;;;;;;;23.20;59.00;23.20;99944.00;;;;338762;28;92022;-87
2022/07/17 01:01:00;;;;;;;;;;;23.20;59.20;23.20;99942.00;;;;340018;28;98420;-88
2022/07/17 01:01:12;;;;;;;;;;;23.20;59.20;23.20;99945.00;;;;337526;28;92898;-87
2022/07/17 01:01:24;;;;;;;;;;;23.20;59.00;23.20;99950.00;;;;337826;28;95130;-88
2022/07/17 01:01:36;;;;;;;;;;;23.20;58.90;23.20;99941.00;;;;340291;28;92279;-88
2022/07/17 01:01:48;;;;;;;;;;;23.20;59.00;23.20;99948.00;;;;336117;28;94742;-87